Time;durP1;ratioP1;P1;durP2;ratioP2;P2;SDS_P1;SDS_P2;PMS_P1;PMS_P2;Temp;Humidity;BMP_temperature;BMP_pressure;BME280_temperature;BME280_humidity;BME280_pressure;Samples;Min_cycle;Max_cycle;Signal;HPM_P1;HPM_P2
2022/05/14 00:01:34;;;;;;;8.55;2.47;;;;;;;13.77;63.89;102087.97;5042647;28;20025;-53
2022/05/14 00:04:00;;;;;;;10.80;3.05;;;;;;;13.75;63.62;102097.38;5042685;28;20025;-48
2022/05/14 00:06:27;;;;;;;10.95;2.90;;;;;;;13.68;64.00;102093.72;5043254;28;20127;-51
2022/05/14 00:08:53;;;;;;;13.18;2.95;;;;;;;13.64;63.96;102092.72;5045979;28;20089;-52
2022/05/14 00:14:04;;;;;;;9.55;3.15;;;;;;;13.65;63.32;102097.09;5043904;28;20067;-50
2022/05/14 00:16:32;;;;;;;11.48;3.22;;;;;;;13.66;63.15;102096.25;5041730;28;20033;-49
2022/05/14 00:18:59;;;;;;;12.90;3.00;;;;;;;13.65;63.32;102096.19;5046249;28;20029;-51
2022/05/14 00:21:25;;;;;;;13.95;3.38;;;;;;;13.60;63.30;102092.56;5044066;28;20029;-51
2022/05/14 00:23:50;;;;;;;15.52;3.60;;;;;;;13.62;62.65;102090.91;5043523;28;20481;-48
2022/05/14 00:26:17;;;;;;;12.32;3.17;;;;;;;13.60;62.81;102097.75;5041607;28;20648;-49
2022/05/14 00:28:43;;;;;;;11.63;3.05;;;;;;;13.56;62.66;102090.69;5043848;28;20064;-49
2022/05/14 00:31:09;;;;;;;8.90;2.65;;;;;;;13.57;62.37;102084.69;5042611;28;20087;-52
2022/05/14 00:33:35;;;;;;;8.93;2.92;;;;;;;13.56;62.23;102082.94;5040052;28;20042;-50
2022/05/14 00:36:01;;;;;;;11.07;3.17;;;;;;;13.55;61.94;102082.06;5044109;28;20039;-52
2022/05/14 00:38:26;;;;;;;12.50;2.75;;;;;;;13.49;62.51;102083.56;5046587;28;20028;-44
2022/05/14 00:41:10;;;;;;;11.48;3.17;;;;;;;13.59;61.66;102085.63;5042042;28;20052;-49
2022/05/14 00:43:50;;;;;;;10.98;2.90;;;;;;;13.55;61.60;102082.06;5039636;28;20044;-47
2022/05/14 00:46:17;;;;;;;12.80;3.30;;;;;;;13.48;61.68;102076.63;5041264;28;21267;-52
2022/05/14 00:48:44;;;;;;;7.28;2.75;;;;;;;13.40;61.67;102079.81;5042558;28;20028;-51
2022/05/14 00:51:20;;;;;;;6.47;2.70;;;;;;;13.49;61.53;102083.56;5041469;28;20028;-52
2022/05/14 00:53:49;;;;;;;8.05;2.80;;;;;;;13.43;61.67;102084.22;5039367;28;21239;-51
2022/05/14 00:56:18;;;;;;;11.63;2.65;;;;;;;13.44;61.50;102079.94;5043136;28;20079;-52
2022/05/14 00:58:46;;;;;;;9.15;2.70;;;;;;;13.40;61.26;102074.63;5042065;28;20035;-51
2022/05/14 01:01:12;;;;;;;11.15;2.60;;;;;;;13.38;61.10;102067.66;5045811;28;20095;-51
2022/05/14 01:03:38;;;;;;;7.50;2.78;;;;;;;13.30;61.49;102074.28;5042268;28;20025;-52
2022/05/14 01:06:05;;;;;;;8.05;2.60;;;;;;;13.32;61.26;102075.19;5045166;28;20047;-46
2022/05/14 01:08:31;;;;;;;12.38;3.00;;;;;;;13.26;61.15;102070.69;5043729;28;20020;-49
2022/05/14 01:10:57;;;;;;;10.88;3.10;;;;;;;13.27;61.17;102074.16;5044267;28;20036;-50
2022/05/14 01:13:23;;;;;;;15.45;3.08;;;;;;;13.19;61.21;102068.69;5042827;28;20098;-52
2022/05/14 01:15:52;;;;;;;7.70;2.97;;;;;;;13.18;61.15;102069.50;5040934;28;20036;-46
2022/05/14 01:18:20;;;;;;;8.18;2.35;;;;;;;13.11;61.33;102064.94;5043443;28;20032;-52
2022/05/14 01:21:11;;;;;;;11.13;2.42;;;;;;;13.21;60.99;102061.88;5040390;28;20028;-52
2022/05/14 01:26:28;;;;;;;9.65;2.80;;;;;;;13.12;60.86;102072.75;5040880;28;20035;-48
2022/05/14 01:29:15;;;;;;;9.82;2.45;;;;;;;13.20;60.61;102066.97;5040273;28;20469;-52
2022/05/14 01:31:42;;;;;;;9.07;2.38;;;;;;;13.07;61.43;102069.09;5039860;28;20074;-48
2022/05/14 01:34:14;;;;;;;9.25;2.83;;;;;;;13.10;61.17;102073.50;5041736;28;20453;-51
2022/05/14 01:36:40;;;;;;;10.13;2.55;;;;;;;13.03;61.22;102071.50;5042001;28;20029;-49
2022/05/14 01:39:07;;;;;;;12.50;3.17;;;;;;;12.99;61.09;102072.25;5040585;28;20048;-46
2022/05/14 01:41:33;;;;;;;9.02;2.42;;;;;;;12.95;61.37;102078.97;5041506;28;20397;-52
2022/05/14 01:43:58;;;;;;;8.10;2.40;;;;;;;12.93;61.29;102077.16;5042243;28;20037;-50
2022/05/14 01:46:23;;;;;;;9.77;3.00;;;;;;;12.90;61.83;102077.91;5041113;28;20040;-48
2022/05/14 01:48:49;;;;;;;10.35;2.50;;;;;;;12.91;61.36;102071.06;5040939;28;20028;-51
2022/05/14 01:51:15;;;;;;;8.90;2.53;;;;;;;12.93;61.31;102078.06;5042104;28;21350;-49
2022/05/14 01:53:41;;;;;;;6.95;2.40;;;;;;;12.84;61.59;102077.69;5040612;28;21873;-52
2022/05/14 01:56:06;;;;;;;10.05;2.80;;;;;;;12.83;61.38;102079.38;5040696;28;20061;-46
2022/05/14 01:58:38;;;;;;;9.35;2.40;;;;;;;12.94;61.40;102072.06;5044616;28;20088;-52
2022/05/14 02:01:12;;;;;;;7.57;2.50;;;;;;;12.88;61.33;102088.19;5037649;28;20939;-48
2022/05/14 02:03:38;;;;;;;10.30;2.90;;;;;;;12.84;61.66;102088.88;5042269;28;20083;-53
2022/05/14 02:06:04;;;;;;;8.27;2.65;;;;;;;12.80;62.27;102089.63;5041770;28;20032;-47
2022/05/14 02:08:30;;;;;;;9.45;2.75;;;;;;;12.80;61.68;102087.03;5040945;28;20501;-48
2022/05/14 02:10:55;;;;;;;11.93;3.05;;;;;;;12.79;61.84;102089.53;5040082;28;20021;-52
2022/05/14 02:13:21;;;;;;;8.43;2.60;;;;;;;12.70;62.13;102090.06;5041919;28;20059;-48
2022/05/14 02:15:46;;;;;;;7.93;2.53;;;;;;;12.77;62.18;102086.03;5040296;28;20025;-52
2022/05/14 02:18:11;;;;;;;5.57;2.75;;;;;;;12.70;62.60;102086.63;5041280;28;20070;-50
2022/05/14 02:20:37;;;;;;;7.97;3.00;;;;;;;12.67;62.43;102084.78;5040409;28;20049;-47
2022/05/14 02:23:02;;;;;;;10.00;3.78;;;;;;;12.64;62.86;102083.78;5039427;28;20117;-53
2022/05/14 02:25:28;;;;;;;9.70;3.47;;;;;;;12.66;62.91;102089.88;5040699;28;20041;-50
2022/05/14 02:27:53;;;;;;;9.50;3.15;;;;;;;12.61;62.97;102092.28;5041128;28;20037;-52
2022/05/14 02:30:19;;;;;;;9.48;2.88;;;;;;;12.58;63.12;102092.16;5040686;28;20057;-45
2022/05/14 02:32:45;;;;;;;12.25;3.42;;;;;;;12.55;63.72;102090.34;5040332;28;20052;-47
2022/05/14 02:35:10;;;;;;;10.70;3.30;;;;;;;12.49;63.56;102095.25;5040262;28;20055;-50
2022/05/14 02:37:36;;;;;;;10.20;3.53;;;;;;;12.43;64.01;102094.13;5041887;28;20029;-49
2022/05/14 02:40:01;;;;;;;10.85;3.33;;;;;;;12.45;63.76;102090.81;5042539;28;20485;-50
2022/05/14 02:42:27;;;;;;;16.95;3.47;;;;;;;12.41;64.06;102099.22;5040050;28;20397;-51
2022/05/14 02:44:52;;;;;;;10.10;3.60;;;;;;;12.37;64.16;102091.31;5040553;28;20029;-44
2022/05/14 02:47:18;;;;;;;10.23;3.70;;;;;;;12.35;64.15;102098.97;5044944;28;20036;-50
2022/05/14 02:49:43;;;;;;;9.73;3.55;;;;;;;12.34;64.20;102092.94;5040562;28;20035;-53
2022/05/14 02:52:10;;;;;;;12.52;3.80;;;;;;;12.39;64.46;102097.44;5041979;28;20040;-51
2022/05/14 02:54:37;;;;;;;9.65;3.53;;;;;;;12.34;64.77;102097.22;5042121;28;20044;-52
2022/05/14 02:57:03;;;;;;;8.93;3.47;;;;;;;12.32;64.66;102099.75;5042739;28;20401;-50
2022/05/14 02:59:29;;;;;;;12.45;3.95;;;;;;;12.31;64.62;102095.38;5042539;28;20045;-51
2022/05/14 03:01:54;;;;;;;8.98;3.72;;;;;;;12.31;64.58;102099.66;5039832;28;20033;-51
2022/05/14 03:04:26;;;;;;;9.98;3.88;;;;;;;12.37;64.26;102092.19;5044446;28;20086;-45
2022/05/14 03:06:52;;;;;;;9.35;3.70;;;;;;;12.27;64.52;102095.22;5042305;28;20024;-51
2022/05/14 03:09:18;;;;;;;15.98;3.80;;;;;;;12.24;64.56;102106.28;5044036;28;20083;-52
2022/05/14 03:11:44;;;;;;;12.77;3.70;;;;;;;12.22;64.67;102096.72;5044780;28;20536;-52
2022/05/14 03:14:09;;;;;;;12.27;3.80;;;;;;;12.20;64.45;102094.09;5044101;28;20057;-49
2022/05/14 03:16:35;;;;;;;14.18;4.15;;;;;;;12.15;64.83;102099.88;5043502;28;20103;-49
2022/05/14 03:19:01;;;;;;;9.25;3.80;;;;;;;12.12;64.93;102097.16;5045292;28;20099;-52
2022/05/14 03:21:26;;;;;;;12.80;3.65;;;;;;;12.09;64.94;102092.78;5043511;28;20033;-47
2022/05/14 03:23:51;;;;;;;9.93;3.58;;;;;;;12.03;65.20;102101.13;5042821;28;20108;-48
2022/05/14 03:26:17;;;;;;;9.10;3.60;;;;;;;12.00;65.53;102097.53;5043542;28;20032;-51
2022/05/14 03:28:42;;;;;;;9.10;3.42;;;;;;;12.04;65.69;102096.84;5043784;28;20543;-46
2022/05/14 03:31:08;;;;;;;10.15;4.15;;;;;;;12.01;65.35;102092.47;5043254;28;20056;-51
2022/05/14 03:33:33;;;;;;;8.00;3.50;;;;;;;11.94;65.56;102092.13;5044617;28;20037;-51
2022/05/14 03:35:59;;;;;;;10.45;3.70;;;;;;;12.00;65.30;102094.94;5044679;28;20029;-52
2022/05/14 03:38:24;;;;;;;6.88;3.60;;;;;;;11.97;65.30;102103.44;5043657;28;20029;-51
2022/05/14 03:40:50;;;;;;;11.18;4.28;;;;;;;11.99;65.46;102100.94;5040610;28;20032;-49
2022/05/14 03:43:15;;;;;;;12.60;3.85;;;;;;;11.92;65.67;102093.75;5043000;28;20119;-52
2022/05/14 03:45:41;;;;;;;8.18;3.92;;;;;;;11.86;65.49;102090.94;5040015;28;20026;-46
2022/05/14 03:48:06;;;;;;;8.65;3.72;;;;;;;11.86;65.72;102090.94;5042092;28;20441;-52
2022/05/14 03:50:31;;;;;;;9.38;3.65;;;;;;;11.88;65.81;102099.59;5042503;28;20067;-52
2022/05/14 03:52:57;;;;;;;11.65;3.97;;;;;;;11.80;65.98;102107.84;5043243;28;20033;-50
2022/05/14 03:55:23;;;;;;;9.18;4.07;;;;;;;11.79;66.08;102097.47;5041052;28;20127;-50
2022/05/14 03:57:48;;;;;;;8.70;3.80;;;;;;;11.85;65.43;102089.16;5042149;28;20031;-51
2022/05/14 04:00:15;;;;;;;14.73;3.80;;;;;;;11.85;65.32;102089.16;5041103;28;20033;-50
2022/05/14 04:02:40;;;;;;;11.07;3.72;;;;;;;11.80;65.56;102091.50;5042109;28;20041;-51
2022/05/14 04:05:06;;;;;;;11.35;4.13;;;;;;;11.71;65.87;102093.69;5043394;28;20043;-53
2022/05/14 04:07:31;;;;;;;7.88;3.70;;;;;;;11.70;65.99;102092.81;5042598;28;20079;-52
2022/05/14 04:09:56;;;;;;;9.88;3.20;;;;;;;11.75;65.79;102104.19;5040430;28;20420;-52
2022/05/14 04:12:22;;;;;;;11.70;3.35;;;;;;;11.66;65.90;102103.81;5041126;28;20073;-49
2022/05/14 04:14:47;;;;;;;10.73;3.38;;;;;;;11.70;65.94;102100.53;5041051;28;20130;-52
2022/05/14 04:17:13;;;;;;;9.30;3.85;;;;;;;11.70;65.88;102097.06;5042433;28;20074;-52
2022/05/14 04:19:38;;;;;;;8.07;3.67;;;;;;;11.66;66.08;102092.63;5049314;28;20523;-48
2022/05/14 04:22:04;;;;;;;7.22;3.33;;;;;;;11.60;66.21;102105.25;5040764;28;20048;-50
2022/05/14 04:24:30;;;;;;;11.25;3.35;;;;;;;11.61;66.29;102109.56;5043332;28;20025;-52
2022/05/14 04:26:56;;;;;;;10.38;3.53;;;;;;;11.54;66.39;102103.28;5041124;28;20485;-48
2022/05/14 04:29:21;;;;;;;8.40;3.60;;;;;;;11.60;66.63;102107.81;5044242;28;20041;-52
2022/05/14 04:31:47;;;;;;;10.20;3.50;;;;;;;11.58;66.55;102102.56;5042624;28;20057;-51
2022/05/14 04:34:12;;;;;;;9.10;3.45;;;;;;;11.58;66.14;102104.28;5043399;28;20036;-52
2022/05/14 04:36:38;;;;;;;8.77;3.47;;;;;;;11.58;66.50;102112.00;5043419;28;20025;-50
2022/05/14 04:39:03;;;;;;;10.32;3.80;;;;;;;11.63;66.35;102113.97;5045004;28;20029;-52
2022/05/14 04:41:30;;;;;;;10.63;3.25;;;;;;;11.62;66.52;102112.22;5042085;28;20513;-51
2022/05/14 04:43:58;;;;;;;10.45;3.88;;;;;;;11.61;66.99;102107.88;5041831;28;20029;-51
2022/05/14 04:46:23;;;;;;;8.55;3.25;;;;;;;11.61;66.75;102110.47;5041095;28;20485;-49
2022/05/14 04:48:49;;;;;;;10.05;4.00;;;;;;;11.63;66.70;102110.50;5040226;28;20036;-50
2022/05/14 04:51:14;;;;;;;11.95;3.63;;;;;;;11.70;66.25;102117.69;5055367;28;20760;-49
2022/05/14 04:53:40;;;;;;;12.38;3.78;;;;;;;11.64;66.63;102118.31;5037431;28;20519;-48
2022/05/14 04:56:05;;;;;;;10.35;4.32;;;;;;;11.69;66.92;102123.66;5038511;28;20043;-50
2022/05/14 04:58:30;;;;;;;11.68;4.03;;;;;;;11.66;67.07;102116.69;5039157;28;20078;-49
2022/05/14 05:00:56;;;;;;;13.40;4.10;;;;;;;11.66;67.18;102115.81;5040666;28;20087;-49
2022/05/14 05:03:22;;;;;;;12.73;4.10;;;;;;;11.71;67.64;102116.88;5036151;28;20037;-51
2022/05/14 05:05:50;;;;;;;11.18;4.15;;;;;;;11.73;67.22;102120.41;5041510;28;20144;-44
2022/05/14 05:08:16;;;;;;;10.10;4.03;;;;;;;11.79;66.81;102124.13;5040690;28;20043;-46
2022/05/14 05:10:42;;;;;;;13.35;4.25;;;;;;;11.89;67.00;102130.63;5041659;28;20485;-52
2022/05/14 05:13:13;;;;;;;13.68;4.00;;;;;;;11.95;67.01;102133.44;5039617;28;20028;-50
2022/05/14 05:15:39;;;;;;;12.65;4.38;;;;;;;11.94;66.66;102139.41;5040949;28;20033;-50
2022/05/14 05:18:05;;;;;;;10.95;4.22;;;;;;;11.98;66.98;102135.25;5040277;28;20025;-47
2022/05/14 05:20:31;;;;;;;11.13;4.55;;;;;;;12.04;67.06;102140.69;5042879;28;20171;-52
2022/05/14 05:22:56;;;;;;;10.57;4.63;;;;;;;12.10;66.97;102143.50;5042614;28;20134;-49
2022/05/14 05:25:22;;;;;;;14.27;4.75;;;;;;;12.15;67.42;102144.59;5042934;28;20067;-46
2022/05/14 05:27:47;;;;;;;14.52;5.28;;;;;;;12.22;66.86;102136.28;5038541;28;20028;-50
2022/05/14 05:30:13;;;;;;;12.65;5.05;;;;;;;12.28;66.91;102133.97;5040549;28;20057;-48
2022/05/14 05:32:38;;;;;;;14.13;5.00;;;;;;;12.33;66.85;102141.91;5042868;28;20032;-48
2022/05/14 05:35:05;;;;;;;12.65;5.03;;;;;;;12.42;66.73;102142.25;5041601;28;20826;-44
2022/05/14 05:37:31;;;;;;;11.35;4.75;;;;;;;12.49;67.22;102139.09;5041456;28;20497;-49
2022/05/14 05:39:56;;;;;;;14.27;5.40;;;;;;;12.54;66.87;102147.03;5041319;28;20029;-51
2022/05/14 05:42:22;;;;;;;13.02;5.78;;;;;;;12.65;67.18;102143.19;5042520;28;20028;-52
2022/05/14 05:44:48;;;;;;;12.75;5.82;;;;;;;12.76;66.75;102134.19;5040189;28;20041;-50
2022/05/14 05:47:14;;;;;;;12.27;5.18;;;;;;;12.84;66.59;102139.63;5041384;28;20021;-52
2022/05/14 05:49:40;;;;;;;11.90;5.50;;;;;;;12.91;66.52;102151.09;5038370;28;20063;-49
2022/05/14 05:52:05;;;;;;;15.02;6.25;;;;;;;13.01;66.50;102160.94;5040622;28;20116;-53
2022/05/14 05:57:15;;;;;;;14.40;6.10;;;;;;;13.20;66.54;102150.50;5041047;28;20588;-52
2022/05/14 05:59:41;;;;;;;14.55;5.95;;;;;;;13.26;66.70;102140.44;5044949;28;20114;-49
2022/05/14 06:02:08;;;;;;;13.55;6.38;;;;;;;13.43;66.24;102151.41;5042431;28;20749;-52
2022/05/14 06:04:34;;;;;;;13.25;6.68;;;;;;;13.47;66.46;102162.72;5039442;28;20733;-52
2022/05/14 06:07:00;;;;;;;12.75;6.25;;;;;;;13.51;66.67;102162.88;5040155;28;20025;-49
2022/05/14 06:09:26;;;;;;;15.80;6.10;;;;;;;13.63;66.35;102170.22;5036512;28;20048;-47
2022/05/14 06:11:52;;;;;;;19.13;7.50;;;;;;;13.61;66.36;102165.00;5037165;28;20029;-50
2022/05/14 06:14:18;;;;;;;17.65;6.80;;;;;;;13.74;66.16;102166.31;5042142;28;20072;-46
2022/05/14 06:16:44;;;;;;;13.45;6.63;;;;;;;13.87;65.85;102162.44;5040578;28;20048;-45
2022/05/14 06:19:10;;;;;;;19.45;7.05;;;;;;;13.93;66.32;102167.84;5042767;28;20045;-52
2022/05/14 06:21:37;;;;;;;16.80;7.00;;;;;;;14.00;66.04;102166.34;5039942;28;20614;-50
2022/05/14 06:24:05;;;;;;;14.98;7.18;;;;;;;14.09;66.58;102164.97;5038700;28;20142;-52
2022/05/14 06:26:30;;;;;;;16.70;7.22;;;;;;;14.22;65.80;102163.66;5037735;28;20041;-43
2022/05/14 06:28:56;;;;;;;15.98;7.10;;;;;;;14.30;66.26;102157.03;5022281;28;20094;-52
2022/05/14 06:31:21;;;;;;;16.15;7.40;;;;;;;14.36;65.68;102162.41;5039379;28;20080;-48
2022/05/14 06:33:48;;;;;;;17.90;7.88;;;;;;;14.51;65.49;102175.03;5038570;28;20029;-49
2022/05/14 06:36:15;;;;;;;16.58;7.50;;;;;;;14.59;65.28;102181.31;5035186;28;20280;-53
2022/05/14 06:38:41;;;;;;;20.40;8.18;;;;;;;14.64;65.52;102192.72;5035796;28;20037;-47
2022/05/14 06:41:08;;;;;;;17.67;7.78;;;;;;;14.78;65.52;102194.88;5037939;28;20473;-51
2022/05/14 06:43:34;;;;;;;17.33;8.20;;;;;;;14.87;65.40;102187.41;5040614;28;20505;-53
2022/05/14 06:45:59;;;;;;;22.73;7.75;;;;;;;14.99;64.95;102175.72;5041191;28;20124;-50
2022/05/14 06:48:24;;;;;;;16.95;7.57;;;;;;;15.10;64.98;102177.72;5042493;28;20425;-51
2022/05/14 06:50:50;;;;;;;21.27;8.10;;;;;;;15.18;64.58;102186.63;5043484;28;20025;-54
2022/05/14 06:53:19;;;;;;;19.98;8.07;;;;;;;15.35;64.21;102187.09;5045947;28;20072;-51
2022/05/14 06:55:48;;;;;;;17.70;7.38;;;;;;;15.43;64.36;102181.34;5035583;28;20447;-49
2022/05/14 06:58:20;;;;;;;21.57;7.83;;;;;;;15.55;64.01;102183.41;5039049;28;20048;-53
2022/05/14 07:00:46;;;;;;;20.60;7.65;;;;;;;15.59;64.12;102184.34;5039949;28;20043;-48
2022/05/14 07:08:41;;;;;;;22.27;8.38;;;;;;;15.93;63.07;102179.31;5040712;28;20536;-53
2022/05/14 07:11:09;;;;;;;20.80;8.30;;;;;;;15.90;62.76;102180.97;5056035;28;20025;-51
2022/05/14 07:13:35;;;;;;;19.40;7.65;;;;;;;16.05;63.22;102184.81;5042110;28;20043;-47
2022/05/14 07:16:00;;;;;;;24.95;8.32;;;;;;;16.15;62.69;102185.97;5043575;28;20481;-48
2022/05/14 07:18:26;;;;;;;18.63;8.07;;;;;;;16.25;62.32;102180.16;5044239;28;20036;-46
2022/05/14 07:20:51;;;;;;;21.10;8.18;;;;;;;16.28;62.29;102192.34;5035993;28;20025;-51
2022/05/14 07:23:16;;;;;;;21.27;8.07;;;;;;;16.42;62.44;102187.50;5035692;28;20114;-49
2022/05/14 07:25:42;;;;;;;19.45;7.70;;;;;;;16.55;62.85;102187.81;5030159;28;20405;-50
2022/05/14 07:28:08;;;;;;;21.60;8.43;;;;;;;16.50;61.58;102179.06;5041437;28;20033;-52
2022/05/14 07:30:35;;;;;;;22.70;8.20;;;;;;;16.59;61.91;102183.59;5044775;28;20191;-52
2022/05/14 07:33:00;;;;;;;21.23;8.48;;;;;;;16.80;61.70;102180.66;5044649;28;20025;-50
2022/05/14 07:35:26;;;;;;;16.38;7.47;;;;;;;16.90;62.35;102177.44;5038773;28;20063;-45
2022/05/14 07:37:55;;;;;;;21.83;8.40;;;;;;;17.10;61.77;102178.75;5042838;28;20048;-46
2022/05/14 07:40:25;;;;;;;24.77;8.40;;;;;;;17.20;62.60;102190.25;5043146;28;20735;-46
2022/05/14 07:42:59;;;;;;;19.15;8.15;;;;;;;17.24;60.83;102191.19;5046224;28;20032;-50
2022/05/14 07:45:32;;;;;;;25.42;8.13;;;;;;;17.28;60.37;102188.69;5048427;28;20024;-48
2022/05/14 07:48:00;;;;;;;23.77;8.45;;;;;;;17.31;60.48;102188.75;5044475;28;20060;-44
2022/05/14 07:50:25;;;;;;;20.13;7.95;;;;;;;17.48;61.08;102178.72;5045750;28;20095;-50
2022/05/14 07:52:52;;;;;;;20.13;7.97;;;;;;;17.49;60.22;102190.88;5042027;28;20564;-49
2022/05/14 07:55:18;;;;;;;24.52;8.07;;;;;;;17.54;59.60;102194.44;5045023;28;20397;-49
2022/05/14 07:57:44;;;;;;;23.80;8.48;;;;;;;17.67;60.01;102193.84;5045796;28;20800;-43
2022/05/14 08:00:10;;;;;;;19.30;8.23;;;;;;;17.81;60.03;102188.94;5045419;28;20033;-47
2022/05/14 08:02:35;;;;;;;24.63;8.20;;;;;;;17.86;60.01;102187.31;5046532;28;20040;-50
2022/05/14 08:05:03;;;;;;;20.55;8.15;;;;;;;17.98;59.72;102178.84;5042518;28;20069;-51
2022/05/14 08:07:29;;;;;;;18.13;7.50;;;;;;;18.11;59.47;102183.44;5042792;28;20067;-51
2022/05/14 08:09:55;;;;;;;18.88;8.05;;;;;;;18.17;57.69;102198.28;5042491;28;20041;-51
2022/05/14 08:12:21;;;;;;;16.77;7.70;;;;;;;18.22;57.21;102194.03;5043359;28;20020;-51
2022/05/14 08:14:46;;;;;;;29.00;8.10;;;;;;;18.39;58.70;102196.94;5041415;28;20029;-49
2022/05/14 08:17:12;;;;;;;21.90;8.43;;;;;;;18.51;58.25;102191.94;5045757;28;20114;-47
2022/05/14 08:19:38;;;;;;;18.27;8.13;;;;;;;18.64;58.14;102186.06;5056580;28;20056;-48
2022/05/14 08:24:49;;;;;;;17.95;7.82;;;;;;;18.82;56.87;102192.47;5045609;28;20047;-51
2022/05/14 08:27:14;;;;;;;23.55;8.15;;;;;;;18.85;56.96;102187.28;5043568;28;20025;-48
2022/05/14 08:29:41;;;;;;;25.13;8.35;;;;;;;18.96;56.77;102198.75;5042650;28;20044;-50
2022/05/14 08:32:06;;;;;;;22.48;8.13;;;;;;;18.98;56.28;102194.41;5057163;28;20029;-48
2022/05/14 08:34:32;;;;;;;21.30;8.05;;;;;;;19.02;56.48;102193.63;5042947;28;20401;-45
2022/05/14 08:36:58;;;;;;;23.00;8.57;;;;;;;18.97;55.46;102195.28;5044797;28;20033;-52
2022/05/14 08:39:24;;;;;;;21.20;7.72;;;;;;;19.13;56.38;102191.16;5042005;28;20033;-46
2022/05/14 08:41:51;;;;;;;18.40;8.10;;;;;;;19.15;55.75;102200.75;5040432;28;20044;-49
2022/05/14 08:44:30;;;;;;;17.58;7.60;;;;;;;19.28;56.56;102196.56;5046623;28;20412;-51
2022/05/14 08:47:00;;;;;;;24.77;8.43;;;;;;;19.35;55.93;102192.31;5041419;28;20402;-47
2022/05/14 08:49:45;;;;;;;20.90;8.15;;;;;;;19.46;55.84;102186.38;5044232;28;20029;-51
2022/05/14 08:52:21;;;;;;;24.13;8.40;;;;;;;19.55;55.39;102193.47;5043807;28;20074;-49
2022/05/14 08:54:47;;;;;;;20.95;7.38;;;;;;;19.65;55.03;102195.34;5041829;28;20558;-51
2022/05/14 08:57:38;;;;;;;19.20;8.02;;;;;;;19.63;54.71;102199.66;5044200;28;20041;-52
2022/05/14 09:00:05;;;;;;;21.20;8.10;;;;;;;19.57;54.17;102186.50;5041364;28;20125;-51
2022/05/14 09:02:39;;;;;;;19.85;7.65;;;;;;;19.67;54.92;102183.19;5042672;28;20039;-53
2022/05/14 09:05:15;;;;;;;18.45;7.55;;;;;;;19.79;55.12;102183.34;5042451;28;20032;-51
2022/05/14 09:07:41;;;;;;;18.73;7.30;;;;;;;19.95;54.31;102189.59;5043298;28;20508;-48
2022/05/14 09:10:21;;;;;;;18.35;7.78;;;;;;;20.02;55.02;102198.34;5042834;28;20030;-49
2022/05/14 09:12:57;;;;;;;20.10;7.35;;;;;;;20.18;53.99;102194.16;5034954;28;20095;-49
2022/05/14 09:15:25;;;;;;;20.92;8.07;;;;;;;20.28;54.78;102194.28;5041282;28;20108;-51
2022/05/14 09:18:07;;;;;;;20.80;7.68;;;;;;;20.36;53.79;102187.38;5039539;28;20390;-51
2022/05/14 09:20:41;;;;;;;19.25;6.90;;;;;;;20.48;53.04;102186.63;5043871;28;20540;-51
2022/05/14 09:23:07;;;;;;;24.10;7.47;;;;;;;20.52;52.61;102190.16;5039742;28;20032;-52
2022/05/14 09:25:39;;;;;;;19.50;7.32;;;;;;;20.56;52.69;102195.41;5039841;28;20741;-49
2022/05/14 09:28:31;;;;;;;17.48;7.75;;;;;;;20.66;53.23;102191.13;5042409;28;20033;-52
2022/05/14 09:30:59;;;;;;;19.20;7.85;;;;;;;20.75;52.99;102180.75;5040331;28;20047;-52
2022/05/14 09:33:28;;;;;;;17.00;6.93;;;;;;;20.86;51.19;102179.06;5041742;28;20396;-48
2022/05/14 09:35:56;;;;;;;24.40;7.60;;;;;;;21.06;51.61;102183.56;5039154;28;20413;-52
2022/05/14 09:38:23;;;;;;;20.13;8.00;;;;;;;21.04;51.81;102183.53;5041865;28;20623;-46
2022/05/14 09:40:50;;;;;;;19.83;7.95;;;;;;;21.06;50.92;102181.81;5040907;28;20066;-53
2022/05/14 09:43:16;;;;;;;20.25;7.85;;;;;;;21.15;51.05;102181.84;5037443;28;20492;-53
2022/05/14 09:45:55;;;;;;;19.25;8.10;;;;;;;21.04;50.90;102185.28;5035848;28;20021;-49
2022/05/14 09:48:20;;;;;;;;;;;;;;;21.16;51.73;102183.59;5040138;28;20032;-52
2022/05/14 09:50:51;;;;;;;21.13;7.80;;;;;;;20.99;50.44;102181.75;5038998;28;20061;-48
2022/05/14 09:53:33;;;;;;;19.83;7.97;;;;;;;21.03;51.19;102180.91;5037493;28;20036;-47
2022/05/14 09:56:26;;;;;;;19.67;8.73;;;;;;;21.07;51.31;102182.69;5040730;28;20021;-53
2022/05/14 09:59:19;;;;;;;20.00;7.68;;;;;;;21.04;51.15;102185.28;5040470;28;20079;-53
2022/05/14 10:02:00;;;;;;;20.48;8.80;;;;;;;20.93;50.72;102184.31;5040045;28;20441;-51
2022/05/14 10:04:36;;;;;;;20.75;7.90;;;;;;;20.83;50.77;102181.69;5040069;28;20781;-53
2022/05/14 10:07:15;;;;;;;22.13;7.78;;;;;;;20.98;50.96;102180.00;5039942;28;20036;-49
2022/05/14 10:10:00;;;;;;;;;;;;;;;21.17;51.18;102179.25;5039557;28;20525;-49
2022/05/14 10:12:32;;;;;;;21.52;7.30;;;;;;;21.03;49.79;102183.53;5043006;28;20395;-53
2022/05/14 10:15:37;;;;;;;15.57;6.70;;;;;;;21.08;50.28;102182.69;5044206;28;20166;-52
2022/05/14 10:18:03;;;;;;;16.27;7.28;;;;;;;20.97;48.86;102175.66;5039864;28;20052;-53
2022/05/14 10:20:37;;;;;;;18.48;6.78;;;;;;;20.96;48.57;102173.91;5042631;28;20729;-53
2022/05/14 10:29:05;;;;;;;19.30;6.40;;;;;;;21.11;49.02;102177.50;5042289;28;20047;-52
2022/05/14 10:31:58;;;;;;;15.82;6.72;;;;;;;21.11;49.59;102180.13;5046108;28;21705;-53
2022/05/14 10:34:56;;;;;;;18.27;6.18;;;;;;;21.23;49.24;102174.03;5043268;28;20544;-53
2022/05/14 10:37:32;;;;;;;16.35;6.35;;;;;;;21.56;47.82;102170.72;5030378;28;20477;-51
2022/05/14 10:40:15;;;;;;;20.17;6.03;;;;;;;21.80;46.61;102171.69;5044019;28;20028;-49
2022/05/14 10:42:59;;;;;;;15.98;4.95;;;;;;;21.99;44.70;102170.84;5046325;28;20029;-50
2022/05/14 10:45:30;;;;;;;15.55;4.90;;;;;;;22.11;44.04;102172.63;5043837;28;20035;-53
2022/05/14 10:48:23;;;;;;;10.10;3.80;;;;;;;22.24;43.47;102174.38;5040793;28;20028;-51
2022/05/14 10:50:48;;;;;;;13.90;4.55;;;;;;;22.24;42.56;102177.00;5047702;28;20036;-48
2022/05/14 10:53:16;;;;;;;11.32;4.25;;;;;;;22.30;42.92;102173.53;5035691;28;20040;-52
2022/05/14 10:56:00;;;;;;;15.15;4.30;;;;;;;22.29;43.46;102179.63;5045819;28;20382;-51
2022/05/14 10:58:39;;;;;;;9.45;3.22;;;;;;;22.15;41.22;102177.03;5041884;28;20033;-45
2022/05/14 11:01:26;;;;;;;;;;;;;;;22.32;43.24;102170.00;5045153;28;20039;-45
2022/05/14 11:04:10;;;;;;;15.35;4.15;;;;;;;22.29;42.37;102169.16;5044081;28;19927;-46
2022/05/14 11:07:01;;;;;;;13.27;4.22;;;;;;;22.32;42.15;102177.88;5043013;28;20120;-50
2022/05/14 11:09:35;;;;;;;12.98;4.13;;;;;;;22.51;43.06;102173.53;5048949;28;20085;-53
2022/05/14 11:12:04;;;;;;;11.82;4.00;;;;;;;22.62;42.48;102163.00;5042955;28;20017;-50
2022/05/14 11:14:52;;;;;;;14.07;4.38;;;;;;;22.84;42.73;102164.72;5043746;28;20033;-52
2022/05/14 11:17:23;;;;;;;15.53;4.90;;;;;;;22.86;41.19;102167.34;5042193;28;20036;-50
2022/05/14 11:19:51;;;;;;;12.32;4.60;;;;;;;22.89;41.03;102168.25;5043135;28;20037;-52
2022/05/14 11:22:27;;;;;;;15.48;4.47;;;;;;;23.00;41.13;102176.09;5041095;28;20124;-48
2022/05/14 11:24:54;;;;;;;12.95;4.55;;;;;;;22.75;41.80;102165.63;5042251;28;20020;-47
2022/05/14 11:27:32;;;;;;;18.05;4.18;;;;;;;22.70;42.10;102166.53;5040056;28;20056;-52
2022/05/14 11:30:27;;;;;;;14.10;4.27;;;;;;;22.58;42.01;102170.03;5042610;28;20044;-48
2022/05/14 11:32:53;;;;;;;12.68;4.07;;;;;;;22.34;41.17;102172.66;5039575;28;20024;-60
2022/05/14 11:35:19;;;;;;;11.13;4.00;;;;;;;22.31;41.04;102175.25;5040688;28;20463;-53
2022/05/14 11:37:50;;;;;;;11.90;4.07;;;;;;;22.53;41.52;102176.16;5041058;28;20039;-54
2022/05/14 11:40:24;;;;;;;13.88;4.18;;;;;;;22.55;40.79;102174.38;5037574;28;20036;-54
2022/05/14 11:42:52;;;;;;;13.75;3.80;;;;;;;22.71;41.01;102171.75;5041544;28;20045;-50
2022/05/14 11:45:26;;;;;;;14.23;3.42;;;;;;;22.85;39.66;102171.72;5040267;28;20032;-53
2022/05/14 11:48:22;;;;;;;12.25;3.40;;;;;;;22.93;39.80;102172.63;5043420;28;20095;-50
2022/05/14 11:51:08;;;;;;;12.55;3.83;;;;;;;22.96;39.47;102164.75;5039995;28;20029;-53